Time;durP1;ratioP1;P1;durP2;ratioP2;P2;SDS_P1;SDS_P2;PMS_P1;PMS_P2;Temp;Humidity;BMP_temperature;BMP_pressure;BME280_temperature;BME280_humidity;BME280_pressure;Samples;Min_cycle;Max_cycle;Signal;HPM_P1;HPM_P2
2023/10/13 00:02:02;;;;;;;9.00;2.00;;;;;;;21.66;53.24;101878.32;107119;1256;25395;-67
2023/10/13 00:04:31;;;;;;;6.00;2.20;;;;;;;21.65;53.15;101879.82;107274;1256;22530;-68
2023/10/13 00:06:59;;;;;;;5.70;2.00;;;;;;;21.64;53.06;101874.40;107086;1255;23136;-74
2023/10/13 00:09:32;;;;;;;7.80;2.80;;;;;;;21.62;53.01;101879.42;107135;1257;25500;-69
2023/10/13 00:11:59;;;;;;;6.80;2.60;;;;;;;21.60;52.93;101881.09;107164;1271;25363;-73
2023/10/13 00:14:33;;;;;;;7.20;1.80;;;;;;;21.59;52.76;101878.89;106983;1256;22582;-73
2023/10/13 00:17:04;;;;;;;10.00;2.90;;;;;;;21.58;52.57;101877.31;107368;1255;24245;-70
2023/10/13 00:19:37;;;;;;;10.50;2.20;;;;;;;21.57;52.35;101868.55;107192;1253;25513;-71
2023/10/13 00:22:11;;;;;;;4.80;2.10;;;;;;;21.55;52.22;101863.02;107194;1256;25352;-68
2023/10/13 00:24:42;;;;;;;4.50;1.90;;;;;;;21.54;52.06;101856.32;106885;1267;24223;-67
2023/10/13 00:27:24;;;;;;;6.70;2.40;;;;;;;21.54;51.96;101847.36;107313;1259;25353;-72
2023/10/13 00:29:54;;;;;;;10.50;2.50;;;;;;;21.53;51.88;101845.81;107064;1256;22526;-68
2023/10/13 00:32:26;;;;;;;8.20;2.50;;;;;;;21.53;51.98;101848.27;107292;1268;25457;-66
2023/10/13 00:34:56;;;;;;;11.10;2.80;;;;;;;21.53;52.03;101850.23;107080;1266;25364;-66
2023/10/13 00:37:28;;;;;;;9.90;2.40;;;;;;;21.53;52.15;101850.40;106911;1257;24197;-66
2023/10/13 00:39:56;;;;;;;11.20;2.60;;;;;;;21.53;52.37;101852.70;107072;1264;25432;-72
2023/10/13 00:42:33;;;;;;;9.80;2.80;;;;;;;21.54;52.43;101856.89;106904;1267;24354;-67
2023/10/13 00:45:00;;;;;;;8.00;2.80;;;;;;;21.53;52.60;101853.55;107090;1270;25359;-67
2023/10/13 00:47:49;;;;;;;10.50;3.30;;;;;;;21.54;52.64;101845.23;106885;1273;25334;-73
2023/10/13 00:50:17;;;;;;;11.20;3.00;;;;;;;21.53;52.85;101846.85;106706;1273;25355;-68
2023/10/13 00:52:51;;;;;;;8.60;3.20;;;;;;;21.53;52.96;101848.45;107196;1256;25495;-66
2023/10/13 00:55:22;;;;;;;3.80;1.80;;;;;;;21.54;53.14;101852.66;107164;1263;25542;-67
2023/10/13 00:57:53;;;;;;;6.60;2.40;;;;;;;21.54;53.19;101848.38;107205;1256;25412;-70
2023/10/13 01:00:28;;;;;;;8.10;2.00;;;;;;;21.55;53.23;101847.81;107093;1264;25494;-68
2023/10/13 01:02:56;;;;;;;5.20;2.30;;;;;;;21.55;53.20;101850.82;107057;1266;25421;-70
2023/10/13 01:05:23;;;;;;;8.20;2.20;;;;;;;21.54;53.17;101849.27;106849;1260;24266;-69
2023/10/13 01:07:54;;;;;;;6.10;2.10;;;;;;;21.55;53.21;101848.72;107186;1256;25373;-68
2023/10/13 01:10:26;;;;;;;7.10;2.00;;;;;;;21.55;53.24;101846.60;107075;1257;22580;-69
2023/10/13 01:12:56;;;;;;;8.00;2.10;;;;;;;21.55;53.17;101847.48;107101;1260;22642;-71
2023/10/13 01:15:29;;;;;;;3.60;2.10;;;;;;;21.55;53.28;101847.30;106896;1259;22526;-67
2023/10/13 01:18:14;;;;;;;6.70;2.40;;;;;;;21.55;53.14;101838.63;106814;1259;23475;-68
2023/10/13 01:20:52;;;;;;;9.10;2.20;;;;;;;21.54;53.11;101839.20;106831;1257;25332;-69
2023/10/13 01:23:18;;;;;;;5.70;2.10;;;;;;;21.54;53.18;101836.41;106790;1266;22530;-69
2023/10/13 01:25:48;;;;;;;10.30;2.20;;;;;;;21.53;53.21;101834.33;106767;1266;25373;-71
2023/10/13 01:28:17;;;;;;;5.40;2.00;;;;;;;21.52;53.29;101833.69;106671;1256;25300;-68
2023/10/13 01:30:49;;;;;;;5.90;2.10;;;;;;;21.51;53.29;101829.50;106491;1267;22647;-74
2023/10/13 01:33:26;;;;;;;12.00;2.90;;;;;;;21.50;53.30;101823.88;107088;1257;25514;-67
2023/10/13 01:35:56;;;;;;;10.00;2.40;;;;;;;21.50;53.40;101824.42;107215;1269;25348;-67
2023/10/13 01:38:28;;;;;;;10.50;3.60;;;;;;;21.49;53.47;101823.20;107117;1257;25425;-68
2023/10/13 01:40:56;;;;;;;;;;;;;;;21.50;53.65;101824.25;107204;1272;25330;-68
2023/10/13 01:43:24;;;;;;;10.70;3.20;;;;;;;21.50;53.80;101824.25;107086;1263;25337;-68
2023/10/13 01:45:51;;;;;;;7.30;2.50;;;;;;;21.49;53.98;101823.04;106568;1274;25452;-70
2023/10/13 01:48:21;;;;;;;12.90;2.80;;;;;;;21.49;54.11;101821.10;106803;1275;25571;-69
2023/10/13 01:50:55;;;;;;;10.40;2.80;;;;;;;21.49;54.31;101826.77;107311;1266;25422;-68
2023/10/13 01:53:22;;;;;;;12.20;3.90;;;;;;;21.49;54.43;101825.86;107192;1255;22514;-71
2023/10/13 01:55:50;;;;;;;9.70;2.20;;;;;;;21.50;54.51;101824.61;107145;1258;25363;-68
2023/10/13 01:58:22;;;;;;;6.80;2.10;;;;;;;21.50;54.62;101825.32;107073;1257;25494;-68
2023/10/13 02:00:49;;;;;;;9.00;2.50;;;;;;;21.50;54.51;101824.25;106926;1266;22530;-69
2023/10/13 02:03:16;;;;;;;5.50;2.10;;;;;;;21.50;54.64;101825.28;106969;1261;25348;-71
2023/10/13 02:05:48;;;;;;;5.20;2.30;;;;;;;21.50;54.61;101824.06;107136;1268;24247;-69
2023/10/13 02:08:25;;;;;;;7.40;2.10;;;;;;;21.50;54.62;101825.13;107240;1267;25352;-70
2023/10/13 02:10:57;;;;;;;10.70;2.50;;;;;;;21.49;54.65;101828.51;106986;1260;25498;-68
2023/10/13 02:13:25;;;;;;;6.30;2.30;;;;;;;21.49;54.56;101828.02;106956;1262;22558;-68
2023/10/13 02:15:56;;;;;;;7.10;1.90;;;;;;;21.48;54.53;101827.90;106962;1257;25588;-71
2023/10/13 02:18:27;;;;;;;8.50;2.30;;;;;;;21.47;54.52;101824.40;107045;1266;22535;-71
2023/10/13 02:20:55;;;;;;;6.00;1.90;;;;;;;21.46;54.56;101821.83;107129;1271;22540;-68
2023/10/13 02:23:29;;;;;;;3.70;1.50;;;;;;;21.44;54.50;101814.81;106965;1266;25358;-71
2023/10/13 02:26:10;;;;;;;6.30;2.30;;;;;;;21.43;54.52;101812.08;107075;1256;22537;-68
2023/10/13 02:28:38;;;;;;;6.40;2.80;;;;;;;21.42;54.50;101810.71;107382;1256;25361;-68
2023/10/13 02:31:06;;;;;;;4.20;1.60;;;;;;;21.39;54.86;101807.31;107220;1263;25414;-69
2023/10/13 02:33:34;;;;;;;6.20;2.40;;;;;;;21.38;54.94;101807.91;107137;1264;25337;-70
2023/10/13 02:36:05;;;;;;;7.50;2.30;;;;;;;21.38;54.89;101808.81;107091;1251;22521;-69
2023/10/13 02:38:45;;;;;;;;;;;;;;;21.37;55.02;101809.03;107145;1263;22511;-70
2023/10/13 02:41:25;;;;;;;5.80;2.30;;;;;;;21.37;55.26;101812.03;106973;1266;25240;-71
2023/10/13 02:43:52;;;;;;;6.10;2.20;;;;;;;21.36;55.38;101816.48;107123;1265;25348;-74
2023/10/13 02:46:23;;;;;;;8.00;2.40;;;;;;;21.35;55.40;101824.84;106976;1263;24295;-69
2023/10/13 02:48:54;;;;;;;;;;;;;;;21.34;55.50;101824.16;106960;1269;24196;-68
2023/10/13 02:51:31;;;;;;;7.00;2.20;;;;;;;21.34;55.52;101820.32;106916;1264;25386;-71
2023/10/13 02:54:02;;;;;;;4.80;2.30;;;;;;;21.32;55.52;101817.71;107038;1266;25459;-69
2023/10/13 02:56:29;;;;;;;3.60;1.60;;;;;;;21.30;55.54;101819.41;106053;1260;1003344;-69
2023/10/13 02:58:56;;;;;;;6.80;1.80;;;;;;;21.29;55.52;101811.70;106802;1260;25421;-73
2023/10/13 03:01:29;;;;;;;5.00;2.20;;;;;;;21.29;55.49;101807.52;106848;1260;25401;-69
2023/10/13 03:03:58;;;;;;;6.10;2.20;;;;;;;21.27;55.64;101804.05;106833;1257;23202;-74
2023/10/13 03:06:35;;;;;;;4.50;1.90;;;;;;;21.25;55.60;101807.13;106784;1256;23107;-70
2023/10/13 03:09:18;;;;;;;11.90;2.20;;;;;;;21.26;55.76;101812.77;106956;1257;22524;-72
2023/10/13 03:11:50;;;;;;;8.30;2.00;;;;;;;21.24;55.92;101810.36;106876;1260;25372;-74
2023/10/13 03:14:39;;;;;;;5.00;2.10;;;;;;;21.24;56.03;101806.67;106305;1257;1003316;-72
2023/10/13 03:17:08;;;;;;;5.50;2.80;;;;;;;21.24;56.05;101801.73;107163;1262;22667;-72
2023/10/13 03:19:39;;;;;;;8.30;1.90;;;;;;;21.23;56.20;101801.23;107146;1267;22603;-69
2023/10/13 03:22:12;;;;;;;6.50;2.30;;;;;;;21.22;56.30;101803.91;106878;1274;25365;-69
2023/10/13 03:24:45;;;;;;;9.20;1.80;;;;;;;21.23;56.26;101806.89;107159;1256;25354;-70
2023/10/13 03:27:23;;;;;;;7.10;2.10;;;;;;;21.23;56.47;101803.20;107158;1267;22534;-72
2023/10/13 03:29:56;;;;;;;4.80;1.80;;;;;;;21.22;56.60;101798.28;107095;1254;25373;-72
2023/10/13 03:32:26;;;;;;;4.80;1.90;;;;;;;21.22;56.53;101794.60;107088;1257;25362;-71
2023/10/13 03:34:54;;;;;;;6.00;2.10;;;;;;;21.21;56.66;101793.20;107211;1267;24214;-70
2023/10/13 03:37:39;;;;;;;8.40;2.60;;;;;;;21.21;56.66;101796.75;107138;1257;25329;-76
2023/10/13 03:45:39;;;;;;;5.70;1.70;;;;;;;21.18;56.69;101802.58;107281;1267;23911;-69
2023/10/13 03:48:11;;;;;;;4.60;1.50;;;;;;;21.17;56.63;101798.03;107228;1256;23872;-70
2023/10/13 03:51:01;;;;;;;3.90;1.80;;;;;;;21.14;56.52;101793.75;107199;1267;23866;-69
2023/10/13 03:53:52;;;;;;;4.60;2.10;;;;;;;21.12;56.57;101796.86;107155;1257;25466;-69
2023/10/13 03:56:26;;;;;;;6.60;1.90;;;;;;;21.11;56.63;101795.17;106936;1258;22533;-69
2023/10/13 03:59:04;;;;;;;2.70;1.60;;;;;;;21.08;56.67;101791.74;107066;1267;25335;-69
2023/10/13 04:04:14;;;;;;;4.10;1.90;;;;;;;21.04;56.78;101802.15;106857;1260;22548;-71
2023/10/13 04:06:51;;;;;;;9.50;1.80;;;;;;;21.02;56.81;101804.71;107021;1259;24212;-71
2023/10/13 04:17:29;;;;;;;5.40;1.90;;;;;;;20.97;56.92;101815.86;106853;1267;25479;-72
2023/10/13 04:36:14;;;;;;;4.90;2.00;;;;;;;20.86;56.72;101825.59;106840;1256;25368;-69
2023/10/13 04:54:49;;;;;;;8.80;2.10;;;;;;;20.81;56.51;101829.38;107090;1257;23270;-72
2023/10/13 06:29:56;;;;;;;4.20;1.90;;;;;;;21.42;50.71;101928.64;107191;1263;22524;-71
2023/10/13 06:32:26;;;;;;;4.70;1.30;;;;;;;21.42;50.35;101930.90;107115;1259;25485;-74
2023/10/13 06:35:18;;;;;;;3.90;1.50;;;;;;;21.42;49.90;101930.40;107105;1272;22531;-69
2023/10/13 06:37:45;;;;;;;2.70;1.20;;;;;;;21.39;49.56;101930.20;106879;1261;23899;-74
2023/10/13 06:43:03;;;;;;;2.10;1.40;;;;;;;21.36;48.96;101924.89;107168;1267;22941;-72
2023/10/13 06:45:36;;;;;;;2.30;1.20;;;;;;;21.34;48.81;101925.84;107001;1257;24218;-77
2023/10/13 06:48:04;;;;;;;2.70;1.50;;;;;;;21.33;48.69;101926.20;106183;1259;1003646;-68
2023/10/13 06:50:39;;;;;;;2.60;1.40;;;;;;;21.34;48.57;101925.14;107181;1256;25428;-72
2023/10/13 06:53:06;;;;;;;3.90;1.60;;;;;;;21.32;48.54;101928.94;107322;1257;23857;-69
2023/10/13 06:55:39;;;;;;;2.60;1.40;;;;;;;21.31;48.50;101931.45;106832;1258;25376;-69
2023/10/13 06:58:06;;;;;;;3.40;1.60;;;;;;;21.29;48.42;101929.61;106920;1261;25242;-70
2023/10/13 07:00:37;;;;;;;1.70;1.20;;;;;;;21.26;48.45;101939.79;107159;1257;25404;-76
2023/10/13 07:03:08;;;;;;;7.40;2.00;;;;;;;21.24;48.62;101945.40;106883;1257;25335;-68
2023/10/13 07:05:39;;;;;;;4.70;1.50;;;;;;;21.23;48.76;101942.23;105670;1257;1003759;-68
2023/10/13 07:08:06;;;;;;;4.30;1.30;;;;;;;21.22;48.72;101938.94;107200;1257;23889;-71
2023/10/13 07:10:47;;;;;;;2.50;1.40;;;;;;;21.21;48.68;101939.90;107247;1259;24198;-69
2023/10/13 07:13:38;;;;;;;3.50;1.50;;;;;;;21.18;48.82;101941.06;106956;1267;22533;-69
2023/10/13 07:16:07;;;;;;;6.20;1.90;;;;;;;21.19;48.97;101941.56;107241;1256;25472;-69
2023/10/13 07:18:41;;;;;;;3.10;1.50;;;;;;;21.20;49.02;101942.77;107142;1253;22524;-70
2023/10/13 07:21:12;;;;;;;4.80;1.30;;;;;;;21.22;49.07;101938.22;107182;1264;24385;-75
2023/10/13 07:23:38;;;;;;;5.50;2.20;;;;;;;21.25;48.97;101939.31;107085;1256;24377;-76
2023/10/13 07:26:08;;;;;;;2.40;1.20;;;;;;;21.26;48.89;101939.28;107200;1257;25557;-74
2023/10/13 07:28:43;;;;;;;5.30;2.40;;;;;;;21.27;48.78;101946.10;107139;1256;25358;-69
2023/10/13 07:31:16;;;;;;;6.70;1.90;;;;;;;21.27;48.76;101947.70;106976;1257;25424;-70
2023/10/13 07:33:43;;;;;;;2.60;1.70;;;;;;;21.24;48.86;101949.98;106860;1268;22518;-69
2023/10/13 07:36:18;;;;;;;3.30;1.70;;;;;;;21.21;48.96;101951.00;107109;1256;25529;-74
2023/10/13 07:39:10;;;;;;;4.70;2.10;;;;;;;21.18;48.94;101952.36;107014;1254;25425;-70
2023/10/13 07:41:54;;;;;;;4.20;2.10;;;;;;;21.13;48.93;101958.59;107209;1253;25400;-69
2023/10/13 07:44:31;;;;;;;3.30;2.20;;;;;;;21.09;49.24;101962.15;107073;1264;22535;-69
2023/10/13 07:46:59;;;;;;;4.10;2.20;;;;;;;21.07;49.47;101963.64;106766;1256;25419;-73
2023/10/13 07:49:36;;;;;;;4.30;2.50;;;;;;;21.08;49.53;101969.75;106598;1269;22635;-72
2023/10/13 07:52:23;;;;;;;2.70;1.80;;;;;;;21.09;49.56;101969.23;106634;1266;23114;-73
2023/10/13 07:55:11;;;;;;;4.80;2.10;;;;;;;21.08;49.92;101963.26;106631;1273;24195;-71
2023/10/13 07:57:53;;;;;;;3.60;1.60;;;;;;;21.04;50.17;101957.27;106919;1255;25807;-70
2023/10/13 08:09:06;;;;;;;3.60;2.60;;;;;;;19.37;56.11;101943.91;105311;1283;558144;-69
2023/10/13 08:11:34;;;;;;;;;;;;;;;20.69;52.04;101940.84;106269;1285;25360;-70
2023/10/13 08:14:12;;;;;;;4.40;2.30;;;;;;;20.83;51.34;101938.61;106273;1270;25441;-70
2023/10/13 08:17:00;;;;;;;6.00;2.20;;;;;;;20.90;50.99;101932.81;106282;1266;25379;-69
2023/10/13 08:19:31;;;;;;;4.40;2.30;;;;;;;20.95;50.82;101938.40;106301;1266;25414;-69
2023/10/13 08:21:59;;;;;;;3.00;2.10;;;;;;;20.99;50.62;101945.98;106062;1269;418840;-69
2023/10/13 08:35:23;;;;;;;2.70;2.10;;;;;;;19.62;54.42;101952.64;104930;1289;557984;-70
2023/10/13 08:40:32;;;;;;;8.40;2.20;;;;;;;20.91;51.29;101962.05;106090;1270;23924;-72
2023/10/13 08:53:31;;;;;;;3.90;2.00;;;;;;;20.80;52.10;101975.78;106302;1270;23261;-71
2023/10/13 08:56:33;;;;;;;4.90;2.00;;;;;;;20.76;51.85;101972.27;105864;1269;25259;-69
2023/10/13 09:01:35;;;;;;;3.60;1.60;;;;;;;20.65;51.37;101975.77;106325;1275;25357;-68
2023/10/13 09:09:36;;;;;;;4.90;1.60;;;;;;;20.59;51.43;101973.92;106357;1267;22535;-70
2023/10/13 09:13:00;;;;;;;3.40;1.70;;;;;;;20.59;51.48;101968.64;106367;1266;25386;-69
2023/10/13 09:18:12;;;;;;;5.70;2.00;;;;;;;20.63;51.47;101956.30;106419;1267;25362;-69
2023/10/13 09:23:45;;;;;;;3.90;2.00;;;;;;;20.64;51.13;101956.08;106140;1270;25474;-70
2023/10/13 09:26:12;;;;;;;2.00;1.70;;;;;;;20.63;51.46;101965.09;106345;1276;25381;-70
2023/10/13 09:28:39;;;;;;;4.40;1.90;;;;;;;20.69;51.34;101957.94;106392;1282;25458;-70
2023/10/13 09:31:07;;;;;;;6.70;1.80;;;;;;;20.73;51.25;101951.77;106470;1277;25424;-70
2023/10/13 09:33:45;;;;;;;3.30;2.00;;;;;;;20.76;50.99;101950.91;106343;1269;25356;-70
2023/10/13 09:36:13;;;;;;;3.60;1.50;;;;;;;20.79;50.74;101960.15;106291;1270;25344;-71
2023/10/13 09:38:40;;;;;;;3.50;2.00;;;;;;;20.78;50.62;101963.89;106401;1267;25430;-71
2023/10/13 09:41:18;;;;;;;3.20;2.30;;;;;;;20.76;50.61;101963.95;106444;1280;22527;-70
2023/10/13 09:43:51;;;;;;;4.30;2.20;;;;;;;20.75;50.65;101970.36;106466;1271;25364;-70
2023/10/13 09:46:26;;;;;;;4.00;2.10;;;;;;;20.72;50.85;101972.95;106423;1266;25392;-70
2023/10/13 09:49:22;;;;;;;4.30;2.20;;;;;;;20.64;51.17;101978.61;107101;1257;25334;-70
2023/10/13 09:51:53;;;;;;;2.80;2.10;;;;;;;20.64;51.23;101979.17;106991;1257;25363;-70
2023/10/13 09:54:26;;;;;;;3.40;2.00;;;;;;;20.62;51.39;101974.84;107095;1267;24412;-70
2023/10/13 09:57:15;;;;;;;3.90;2.00;;;;;;;20.62;51.45;101974.86;107089;1264;25428;-70
2023/10/13 09:59:53;;;;;;;8.30;2.10;;;;;;;20.61;51.55;101971.91;107148;1273;22636;-71
2023/10/13 10:02:26;;;;;;;3.00;2.00;;;;;;;20.61;51.58;101968.73;107075;1272;25351;-71
2023/10/13 10:05:11;;;;;;;3.90;2.00;;;;;;;20.62;51.53;101963.73;106877;1266;25394;-70
2023/10/13 10:07:39;;;;;;;5.60;2.60;;;;;;;20.64;51.58;101963.81;107171;1260;22544;-70
2023/10/13 10:10:08;;;;;;;3.70;1.70;;;;;;;20.64;51.45;101961.19;107255;1260;25344;-70
2023/10/13 10:13:00;;;;;;;2.60;1.70;;;;;;;20.64;51.47;101962.78;106986;1260;25325;-70
2023/10/13 10:15:35;;;;;;;8.90;2.30;;;;;;;20.65;51.56;101971.19;107111;1272;25446;-70
2023/10/13 10:18:03;;;;;;;6.40;2.20;;;;;;;20.67;51.54;101979.02;106892;1256;22527;-70
2023/10/13 10:20:42;;;;;;;7.90;2.30;;;;;;;20.70;51.61;101979.77;106872;1256;25260;-70
2023/10/13 10:23:21;;;;;;;6.10;2.70;;;;;;;20.71;51.73;101982.70;106820;1264;25335;-70
2023/10/13 10:25:51;;;;;;;6.40;2.30;;;;;;;20.72;51.76;101984.98;106580;1257;25341;-71
2023/10/13 10:28:19;;;;;;;3.90;2.00;;;;;;;20.71;51.68;101985.91;106861;1271;25362;-70
2023/10/13 10:33:33;;;;;;;4.10;1.90;;;;;;;19.70;54.90;101973.48;104409;1297;558270;-70
2023/10/13 10:36:00;;;;;;;4.50;2.30;;;;;;;20.64;52.28;101971.90;106272;1262;25392;-70
2023/10/13 10:38:34;;;;;;;6.60;3.00;;;;;;;20.74;52.11;101964.08;106365;1262;25380;-69
2023/10/13 10:41:06;;;;;;;3.60;2.20;;;;;;;20.79;51.67;101962.45;106395;1278;25479;-69
2023/10/13 10:43:51;;;;;;;4.80;2.40;;;;;;;20.80;51.47;101959.88;106360;1265;25371;-70
2023/10/13 10:46:18;;;;;;;4.60;2.50;;;;;;;20.84;51.38;101959.75;106329;1272;483488;-69
2023/10/13 10:48:46;;;;;;;6.20;2.50;;;;;;;20.90;51.29;101964.05;106359;1272;25403;-71
2023/10/13 10:51:23;;;;;;;4.70;2.50;;;;;;;20.95;51.12;101957.29;105930;1260;1003610;-69
2023/10/13 10:53:57;;;;;;;4.80;3.20;;;;;;;21.02;51.17;101954.86;106631;1260;25298;-69
2023/10/13 10:59:01;;;;;;;8.90;3.70;;;;;;;21.16;50.69;101942.57;106728;1256;25472;-69
2023/10/13 11:01:46;;;;;;;7.20;3.80;;;;;;;21.22;50.50;101942.98;106744;1267;25410;-69
2023/10/13 11:04:14;;;;;;;8.20;5.10;;;;;;;21.30;50.38;101937.36;106704;1260;25425;-69
2023/10/13 11:06:48;;;;;;;;;;;;;;;21.37;50.09;101930.64;106825;1256;24264;-69
2023/10/13 11:09:20;;;;;;;11.10;4.30;;;;;;;21.45;49.96;101930.61;106718;1256;25501;-68
2023/10/13 11:11:52;;;;;;;6.50;3.30;;;;;;;21.50;49.91;101929.48;106313;1275;25355;-69
2023/10/13 11:14:26;;;;;;;5.20;2.70;;;;;;;21.55;49.82;101934.36;106776;1260;25351;-69
2023/10/13 11:17:04;;;;;;;6.50;3.20;;;;;;;21.60;49.87;101938.85;106754;1259;25369;-68
2023/10/13 11:19:42;;;;;;;8.60;3.30;;;;;;;21.60;49.89;101934.60;106751;1267;25425;-69
2023/10/13 11:22:29;;;;;;;7.10;3.40;;;;;;;21.64;49.83;101933.52;106359;1260;24225;-69
2023/10/13 11:24:59;;;;;;;4.30;2.60;;;;;;;21.78;49.66;101937.26;106551;1260;25388;-70
2023/10/13 11:30:24;;;;;;;8.60;4.50;;;;;;;21.94;48.92;101934.90;106634;1254;25341;-70
2023/10/13 11:33:08;;;;;;;6.30;3.70;;;;;;;22.01;48.58;101935.21;106926;1266;25396;-70
2023/10/13 11:38:29;;;;;;;6.80;3.70;;;;;;;22.16;48.26;101937.09;106903;1260;23922;-70
2023/10/13 11:41:08;;;;;;;8.00;4.30;;;;;;;22.21;48.25;101937.00;106721;1269;25560;-68
2023/10/13 11:43:52;;;;;;;7.50;4.00;;;;;;;22.25;48.12;101936.09;106739;1269;25541;-69
2023/10/13 11:51:49;;;;;;;7.80;3.20;;;;;;;22.31;48.06;101937.20;106146;1270;1003680;-69
2023/10/13 11:54:17;;;;;;;4.60;2.90;;;;;;;22.33;47.99;101939.39;106822;1262;25388;-68
2023/10/13 11:56:45;;;;;;;7.00;3.90;;;;;;;22.36;47.91;101942.27;106890;1257;23042;-68
2023/10/13 11:59:18;;;;;;;5.20;3.00;;;;;;;22.37;48.14;101938.84;106875;1257;24239;-68
2023/10/13 12:04:56;;;;;;;6.00;2.90;;;;;;;22.43;47.87;101936.38;106963;1257;25375;-70
2023/10/13 12:15:09;;;;;;;8.70;3.10;;;;;;;21.73;50.06;101926.66;105426;1280;557545;-69
2023/10/13 12:17:36;;;;;;;;;;;;;;;22.42;48.58;101937.17;106364;1280;23855;-69
2023/10/13 12:20:05;;;;;;;7.00;3.20;;;;;;;22.46;48.25;101943.99;106224;1270;25382;-68
2023/10/13 12:22:35;;;;;;;6.80;3.10;;;;;;;22.31;48.34;101947.10;106255;1263;22532;-69
2023/10/13 12:27:57;;;;;;;4.80;2.80;;;;;;;22.18;48.05;101949.71;105402;1280;530412;-69
2023/10/13 12:30:48;;;;;;;7.20;3.10;;;;;;;22.15;48.15;101954.33;106244;1266;25437;-69
2023/10/13 12:33:25;;;;;;;3.90;3.10;;;;;;;22.12;48.27;101959.73;106378;1279;25531;-69
2023/10/13 12:36:30;;;;;;;6.20;3.00;;;;;;;22.11;48.22;101960.73;106337;1269;25261;-69
2023/10/13 12:49:58;;;;;;;11.20;3.80;;;;;;;22.04;48.44;101960.52;106808;1260;25520;-68
2023/10/13 12:52:25;;;;;;;5.50;3.10;;;;;;;21.99;48.73;101959.90;106753;1257;25427;-69
2023/10/13 12:55:03;;;;;;;4.50;2.90;;;;;;;21.94;49.26;101954.31;106646;1263;25388;-70
2023/10/13 12:57:33;;;;;;;6.40;3.40;;;;;;;22.00;49.50;101948.89;106689;1262;25366;-69
2023/10/13 13:00:01;;;;;;;7.20;3.30;;;;;;;22.04;49.54;101949.06;106688;1262;23002;-68
2023/10/13 13:02:29;;;;;;;7.20;3.20;;;;;;;22.00;49.50;101944.64;106813;1257;22517;-69
2023/10/13 13:05:02;;;;;;;4.60;3.10;;;;;;;22.03;49.46;101942.04;106891;1269;25409;-68
2023/10/13 13:07:29;;;;;;;5.40;3.30;;;;;;;22.05;48.95;101942.08;106836;1269;25389;-69
2023/10/13 13:09:59;;;;;;;5.40;3.20;;;;;;;22.08;48.67;101943.68;106802;1269;25497;-69
2023/10/13 13:12:30;;;;;;;7.00;3.20;;;;;;;22.11;48.71;101944.98;106674;1270;25372;-69
2023/10/13 13:14:57;;;;;;;6.80;3.60;;;;;;;22.12;48.44;101946.67;106803;1269;25366;-69
2023/10/13 13:17:24;;;;;;;5.20;3.20;;;;;;;22.14;48.18;101945.53;106103;1259;1003255;-68
2023/10/13 13:19:51;;;;;;;7.30;3.50;;;;;;;22.11;48.17;101944.09;106772;1257;25328;-69
2023/10/13 13:22:20;;;;;;;5.80;3.70;;;;;;;22.13;47.91;101946.11;106842;1260;25338;-68
2023/10/13 13:24:48;;;;;;;6.00;3.30;;;;;;;22.10;48.10;101954.38;106761;1273;25347;-68
2023/10/13 13:27:19;;;;;;;8.60;3.60;;;;;;;21.99;48.84;101953.02;106830;1257;25458;-68
2023/10/13 13:29:46;;;;;;;7.80;4.10;;;;;;;22.00;49.44;101951.70;106648;1270;22536;-68
2023/10/13 13:32:23;;;;;;;10.60;3.50;;;;;;;22.01;49.26;101948.10;106386;1275;25398;-68
2023/10/13 13:35:07;;;;;;;8.60;3.90;;;;;;;22.01;49.09;101941.75;106578;1264;22725;-68
2023/10/13 13:37:37;;;;;;;7.40;3.80;;;;;;;22.03;48.83;101944.13;106569;1269;25497;-69
2023/10/13 13:40:17;;;;;;;6.60;4.10;;;;;;;22.06;48.62;101939.56;106484;1254;24370;-68
2023/10/13 13:42:45;;;;;;;4.40;3.10;;;;;;;22.11;48.14;101939.84;106869;1270;25342;-69
2023/10/13 13:45:22;;;;;;;6.50;3.10;;;;;;;22.12;47.74;101940.32;106750;1270;23208;-69
2023/10/13 13:47:53;;;;;;;5.30;3.30;;;;;;;22.15;47.39;101939.47;106871;1260;23166;-69
2023/10/13 13:50:28;;;;;;;4.00;2.80;;;;;;;22.20;47.23;101939.92;106687;1275;25371;-68
2023/10/13 13:52:56;;;;;;;8.00;3.40;;;;;;;22.19;47.16;101939.08;106838;1260;24196;-68
2023/10/13 13:55:26;;;;;;;7.90;3.40;;;;;;;22.22;46.86;101939.29;106833;1254;25350;-68
2023/10/13 13:57:53;;;;;;;4.90;3.00;;;;;;;22.25;46.80;101939.09;106790;1260;22652;-69
2023/10/13 14:00:40;;;;;;;9.70;3.30;;;;;;;22.26;46.76;101934.98;106733;1260;25375;-68
2023/10/13 14:03:23;;;;;;;8.10;3.50;;;;;;;22.28;46.80;101935.41;106583;1275;25347;-69
2023/10/13 14:05:51;;;;;;;9.80;3.60;;;;;;;22.29;46.73;101938.39;106800;1258;24355;-68
2023/10/13 14:08:19;;;;;;;11.30;3.60;;;;;;;22.28;46.71;101938.42;106772;1254;22523;-68
2023/10/13 14:13:55;;;;;;;9.00;3.60;;;;;;;22.28;47.25;101945.84;106865;1260;25424;-69
2023/10/13 14:16:26;;;;;;;11.50;3.70;;;;;;;22.27;47.13;101947.48;106780;1260;25421;-68
2023/10/13 14:18:53;;;;;;;8.70;3.40;;;;;;;22.26;47.26;101945.60;106795;1273;24401;-69
2023/10/13 14:21:24;;;;;;;7.10;3.30;;;;;;;22.26;47.09;101951.27;106806;1266;25375;-68
2023/10/13 14:23:55;;;;;;;9.30;3.90;;;;;;;22.25;47.16;101949.52;106814;1260;25568;-68
2023/10/13 14:26:25;;;;;;;8.80;4.00;;;;;;;22.25;46.92;101947.58;106820;1260;22528;-68
2023/10/13 14:29:01;;;;;;;14.00;4.50;;;;;;;22.25;46.83;101950.79;106752;1263;25351;-68
2023/10/13 14:31:32;;;;;;;7.40;4.50;;;;;;;22.24;46.91;101949.40;106975;1260;22552;-69
2023/10/13 14:33:59;;;;;;;10.20;4.50;;;;;;;22.22;47.21;101948.80;107039;1254;25420;-68
2023/10/13 14:36:28;;;;;;;9.90;4.70;;;;;;;22.20;47.57;101954.25;107070;1256;25347;-69
2023/10/13 14:38:56;;;;;;;9.20;4.30;;;;;;;22.17;47.79;101951.38;106949;1258;25360;-68
2023/10/13 14:41:23;;;;;;;13.10;3.80;;;;;;;22.13;48.29;101953.69;106742;1267;25521;-68
2023/10/13 14:43:50;;;;;;;9.50;4.10;;;;;;;22.10;48.65;101957.91;107104;1254;25312;-68
2023/10/13 14:46:18;;;;;;;8.90;4.00;;;;;;;22.07;49.11;101958.40;107029;1256;25325;-68
2023/10/13 14:48:48;;;;;;;9.50;4.40;;;;;;;22.06;49.35;101958.68;107178;1264;25372;-68
2023/10/13 14:51:18;;;;;;;8.50;4.00;;;;;;;22.02;49.55;101956.91;107075;1254;22527;-68
2023/10/13 14:53:46;;;;;;;12.60;4.10;;;;;;;22.01;49.66;101962.65;107163;1254;25344;-69
2023/10/13 14:56:15;;;;;;;7.00;4.00;;;;;;;21.99;49.75;101958.31;107174;1251;25344;-68
2023/10/13 14:58:43;;;;;;;12.20;4.60;;;;;;;21.97;49.46;101956.28;106852;1259;24445;-69
2023/10/13 15:01:16;;;;;;;10.10;4.20;;;;;;;21.90;49.22;101960.90;107083;1256;24314;-68
2023/10/13 15:03:44;;;;;;;8.40;4.00;;;;;;;21.82;49.26;101965.67;107139;1254;25408;-68
2023/10/13 15:06:24;;;;;;;5.50;3.10;;;;;;;21.89;48.83;101965.33;106991;1254;26570;-68
2023/10/13 15:08:55;;;;;;;11.40;4.10;;;;;;;21.86;48.80;101967.42;106696;1254;25511;-68
2023/10/13 15:11:38;;;;;;;12.40;4.60;;;;;;;21.82;49.02;101967.46;106682;1257;25344;-68
2023/10/13 15:14:16;;;;;;;13.10;4.70;;;;;;;21.60;49.70;101967.45;107056;1254;24191;-68
2023/10/13 15:16:43;;;;;;;13.50;4.90;;;;;;;21.50;50.14;101967.41;107115;1263;24892;-68
2023/10/13 15:19:12;;;;;;;15.60;4.30;;;;;;;21.44;50.44;101968.42;107081;1254;25423;-68
2023/10/13 15:21:40;;;;;;;11.30;4.70;;;;;;;21.43;50.55;101974.50;107127;1256;25294;-68
2023/10/13 15:24:13;;;;;;;15.00;5.10;;;;;;;21.52;50.21;101972.09;106887;1260;22517;-68
2023/10/13 15:26:57;;;;;;;10.80;5.00;;;;;;;21.48;50.38;101974.60;107119;1257;25404;-68
2023/10/13 15:29:35;;;;;;;14.40;5.20;;;;;;;21.48;50.09;101982.33;106878;1270;25381;-68
2023/10/13 15:34:31;;;;;;;14.50;5.60;;;;;;;21.43;50.08;101987.35;107021;1257;25404;-68
2023/10/13 15:36:58;;;;;;;13.80;5.50;;;;;;;21.40;50.06;101992.98;107073;1262;25375;-69
2023/10/13 15:39:31;;;;;;;10.40;4.60;;;;;;;21.37;50.05;101997.02;106844;1259;22537;-68
2023/10/13 15:41:58;;;;;;;10.70;4.70;;;;;;;21.26;50.22;101994.52;107063;1256;24348;-68